KMLI/MLI METAR and TAF weather

Enter ICAO airport designator
Station Type Date Time Source
KMLI METAR 2021/09/24 02:52 UTC NOAA

KMLI 240252Z 22003KT 10SM CLR 11/08 A2999 RMK AO2 SLP154 T01110083 50003


Station Type Date Time Source
KMLI Decoded METAR 2021/09/24 02:52 UTC NOAA

MOLINE QUAD-CITY AIRPORT, IL, United States (KMLI) 41-27N 90-31W 184M
Sep 23, 2021 - 10:52 PM EDT / 2021.09.24 0252 UTC
Wind: from the SW (220 degrees) at 3 MPH (3 KT):0
Visibility: 10 mile(s):0
Sky conditions: clear
Temperature: 52.0 F (11.1 C)
Dew Point: 46.9 F (8.3 C)
Relative Humidity: 82%
Pressure (altimeter): 29.99 in. Hg (1015 hPa)
Pressure tendency: 0.01 inches (0.3 hPa) higher than three hours ago
ob: KMLI 240252Z 22003KT 10SM CLR 11/08 A2999 RMK AO2 SLP154 T01110083 50003
cycle: 3

Station Type Date Time Source
KMLI TAF 2021/09/23 18:24 UTC NOAA

TAF KMLI 231721Z 2318/2418 32010G18KT P6SM SCT050
FM232300 VRB03KT P6SM SKC
FM241500 21012G20KT P6SM SCT200

Example: see airport list